createdAt,value
2022-11-14T00:03:39.843Z,80.30
2022-11-14T00:07:21.806Z,81.30
2022-11-14T00:11:04.366Z,80.70
2022-11-14T00:14:48.467Z,80.70
2022-11-14T00:18:31.035Z,80.80
2022-11-14T00:22:13.775Z,80.60
2022-11-14T00:25:55.931Z,80.70
2022-11-14T00:29:38.500Z,80.20
2022-11-14T00:33:23.222Z,80.40
2022-11-14T00:37:05.573Z,80.40
2022-11-14T00:40:47.732Z,80.50
2022-11-14T00:44:30.184Z,80.20
2022-11-14T00:48:13.118Z,80.20
2022-11-14T00:51:56.724Z,80.00
2022-11-14T00:55:40.237Z,80.00
2022-11-14T00:59:22.628Z,79.60
2022-11-14T01:03:05.198Z,79.50
2022-11-14T01:06:48.295Z,79.60
2022-11-14T01:10:32.550Z,79.30
2022-11-14T01:14:15.325Z,79.00
2022-11-14T01:17:57.789Z,79.00
2022-11-14T01:21:40.361Z,79.30
2022-11-14T01:25:23.269Z,79.20
2022-11-14T01:29:06.947Z,79.50
2022-11-14T01:32:49.195Z,79.50
2022-11-14T01:36:31.374Z,79.80
2022-11-14T01:40:14.072Z,80.20
2022-11-14T01:43:56.036Z,80.20
2022-11-14T01:47:39.633Z,80.00
2022-11-14T01:51:28.442Z,80.40
2022-11-14T01:55:11.676Z,80.40
2022-11-14T01:58:57.888Z,80.00
2022-11-14T02:02:42.224Z,79.90
2022-11-14T02:06:26.874Z,79.90
2022-11-14T02:10:12.110Z,79.90
2022-11-14T02:13:54.381Z,79.60
2022-11-14T02:17:36.926Z,79.60
2022-11-14T02:21:20.277Z,79.50
2022-11-14T02:25:02.673Z,79.30
2022-11-14T02:28:45.198Z,79.30
2022-11-14T02:32:28.441Z,79.20
2022-11-14T02:36:12.373Z,79.30
2022-11-14T02:39:55.919Z,79.10
2022-11-14T02:43:38.155Z,79.30
2022-11-14T02:47:20.543Z,79.10
2022-11-14T02:51:02.952Z,78.70
2022-11-14T02:54:46.017Z,79.00
2022-11-14T02:58:32.070Z,79.00
2022-11-14T03:02:14.768Z,79.10
2022-11-14T03:06:00.577Z,79.30
2022-11-14T03:09:42.738Z,79.40
2022-11-14T03:13:29.321Z,79.50
2022-11-14T03:17:13.182Z,79.50
2022-11-14T03:20:55.674Z,79.40
2022-11-14T03:24:37.691Z,79.60
2022-11-14T03:28:19.738Z,79.40
2022-11-14T03:32:02.112Z,79.60
2022-11-14T03:35:45.740Z,79.50
2022-11-14T03:39:31.181Z,79.50
2022-11-14T03:43:13.356Z,79.10
2022-11-14T03:46:55.554Z,80.30
2022-11-14T03:50:38.542Z,79.60
2022-11-14T03:54:20.741Z,79.70
2022-11-14T03:58:04.372Z,79.90
2022-11-14T04:01:46.892Z,79.90
2022-11-14T04:05:29.442Z,80.30
2022-11-14T04:09:11.909Z,80.30
2022-11-14T04:12:55.160Z,80.10
2022-11-14T04:16:38.747Z,79.30
2022-11-14T04:20:21.097Z,79.20
2022-11-14T04:24:08.404Z,79.10
2022-11-14T04:27:53.113Z,79.00
2022-11-14T04:31:35.311Z,79.20
2022-11-14T04:35:18.731Z,79.30
2022-11-14T04:39:01.232Z,79.50
2022-11-14T04:42:43.389Z,79.60
2022-11-14T04:46:25.420Z,79.50
2022-11-14T04:50:09.025Z,79.40
2022-11-14T04:53:52.463Z,80.00
2022-11-14T04:57:34.872Z,79.20
2022-11-14T05:01:17.557Z,78.50
2022-11-14T05:04:59.734Z,78.90
2022-11-14T05:08:41.740Z,78.90
2022-11-14T05:12:25.343Z,79.00
2022-11-14T05:16:07.716Z,79.00
2022-11-14T05:19:50.156Z,78.70
2022-11-14T05:23:33.050Z,78.70
2022-11-14T05:27:15.454Z,78.50
2022-11-14T05:31:03.909Z,78.70
2022-11-14T05:34:46.076Z,78.70
2022-11-14T05:38:28.536Z,78.70
2022-11-14T05:42:11.234Z,78.70
2022-11-14T05:45:53.366Z,78.70
2022-11-14T05:49:36.820Z,79.20
2022-11-14T05:53:18.941Z,79.20
2022-11-14T05:57:01.397Z,79.20
2022-11-14T06:00:52.012Z,79.20
2022-11-14T06:04:37.678Z,79.40
2022-11-14T06:08:19.963Z,79.50
2022-11-14T06:12:05.977Z,79.30
2022-11-14T06:15:48.080Z,79.20
2022-11-14T06:19:30.341Z,79.10
2022-11-14T06:23:13.681Z,79.10
2022-11-14T06:26:55.656Z,79.10
2022-11-14T06:30:39.119Z,79.00
2022-11-14T06:34:21.476Z,79.10
2022-11-14T06:38:03.767Z,79.50
2022-11-14T06:41:47.547Z,79.60
2022-11-14T06:45:29.846Z,79.50
2022-11-14T06:49:12.117Z,79.70
2022-11-14T06:52:54.311Z,79.90
2022-11-14T06:56:36.633Z,80.00
2022-11-14T07:00:20.685Z,80.60
2022-11-14T07:04:03.159Z,81.10
2022-11-14T07:07:45.401Z,81.20
2022-11-14T07:11:29.594Z,81.50
2022-11-14T07:15:12.093Z,81.70
2022-11-14T07:18:55.779Z,81.80
2022-11-14T07:22:38.158Z,82.00
2022-11-14T07:26:20.296Z,81.70
2022-11-14T07:30:03.114Z,81.80
2022-11-14T07:33:46.327Z,81.20
2022-11-14T07:37:30.157Z,80.60
2022-11-14T07:41:14.365Z,80.50
2022-11-14T07:44:56.450Z,80.90
2022-11-14T07:48:38.957Z,81.40
2022-11-14T07:52:21.236Z,81.30
2022-11-14T07:56:06.610Z,83.40
2022-11-14T07:59:49.041Z,85.10
2022-11-14T08:03:31.194Z,74.00
2022-11-14T08:07:13.342Z,64.10
2022-11-14T08:10:57.733Z,57.20
2022-11-14T08:14:41.522Z,54.20
2022-11-14T08:18:24.000Z,50.60
2022-11-14T08:22:07.669Z,49.70
2022-11-14T08:25:49.807Z,47.50
2022-11-14T08:29:32.300Z,44.90
2022-11-14T08:33:15.957Z,44.80
2022-11-14T08:36:58.542Z,43.90
2022-11-14T08:40:40.673Z,43.50
2022-11-14T08:44:23.399Z,43.80
2022-11-14T08:48:06.299Z,44.70
2022-11-14T08:51:52.515Z,45.90
2022-11-14T08:55:34.579Z,46.90
2022-11-14T08:59:16.690Z,48.40
2022-11-14T09:02:58.842Z,48.60
2022-11-14T09:06:40.813Z,48.50
2022-11-14T09:10:24.662Z,50.60
2022-11-14T09:14:07.211Z,53.70
2022-11-14T09:17:49.712Z,56.10
2022-11-14T09:21:31.752Z,56.40
2022-11-14T09:25:14.609Z,58.20
2022-11-14T09:28:58.380Z,58.70
2022-11-14T09:32:40.540Z,60.30
2022-11-14T09:36:23.792Z,62.90
2022-11-14T09:40:06.773Z,62.50
2022-11-14T09:44:29.152Z,62.80
2022-11-14T09:48:15.149Z,56.60
2022-11-14T09:52:04.061Z,51.30
2022-11-14T09:55:46.487Z,49.20
2022-11-14T09:59:30.639Z,49.50
2022-11-14T10:03:18.727Z,49.00
2022-11-14T10:07:09.404Z,47.90
2022-11-14T10:10:55.082Z,47.80
2022-11-14T10:14:59.972Z,46.50
2022-11-14T10:19:01.135Z,45.00
2022-11-14T10:23:00.976Z,44.50
2022-11-14T10:26:53.178Z,43.50
2022-11-14T10:30:41.909Z,45.80
2022-11-14T10:34:31.485Z,46.50
2022-11-14T10:38:18.712Z,47.00
2022-11-14T10:42:07.828Z,48.00
2022-11-14T10:45:55.549Z,48.90
2022-11-14T10:49:38.647Z,50.80
2022-11-14T10:53:28.134Z,49.80
2022-11-14T10:57:16.928Z,50.60
2022-11-14T11:01:37.358Z,53.50
2022-11-14T11:05:21.991Z,55.20
2022-11-14T11:09:27.142Z,56.10
2022-11-14T11:13:15.557Z,56.60
2022-11-14T11:17:19.726Z,56.70
2022-11-14T11:21:08.262Z,58.00
2022-11-14T11:24:50.661Z,57.10
2022-11-14T11:28:35.144Z,56.70
2022-11-14T11:32:25.958Z,56.60
2022-11-14T11:36:14.565Z,56.50
2022-11-14T11:40:02.144Z,56.40
2022-11-14T11:43:53.933Z,57.70
2022-11-14T11:47:38.482Z,57.20
2022-11-14T11:51:26.782Z,57.00
2022-11-14T11:55:18.017Z,56.60
2022-11-14T11:59:14.131Z,56.70
2022-11-14T12:02:58.923Z,56.80
2022-11-14T12:06:47.031Z,56.80
2022-11-14T12:10:33.549Z,56.70
2022-11-14T12:14:40.113Z,57.10
2022-11-14T12:18:43.592Z,56.90
2022-11-14T12:22:45.759Z,57.00
2022-11-14T12:26:48.048Z,56.80
2022-11-14T12:30:32.697Z,56.90
2022-11-14T12:34:23.270Z,56.70
2022-11-14T12:38:13.681Z,56.50
2022-11-14T12:42:03.867Z,56.70
2022-11-14T12:46:00.325Z,56.40
2022-11-14T12:49:59.724Z,56.20
2022-11-14T12:53:43.222Z,56.00
2022-11-14T12:57:50.833Z,56.20
2022-11-14T13:01:46.722Z,56.60
2022-11-14T13:05:50.496Z,56.80
2022-11-14T13:09:35.372Z,56.80
2022-11-14T13:13:36.037Z,56.80
2022-11-14T13:17:44.353Z,57.10
2022-11-14T13:21:48.746Z,57.00
2022-11-14T13:25:31.149Z,57.00
2022-11-14T13:29:56.159Z,57.20
2022-11-14T13:33:41.937Z,57.90
2022-11-14T13:37:46.686Z,58.40
2022-11-14T13:42:20.435Z,58.50
2022-11-14T13:46:09.893Z,58.40
2022-11-14T13:50:02.902Z,58.70
2022-11-14T13:53:47.080Z,58.60
2022-11-14T13:57:42.912Z,58.60
2022-11-14T14:01:44.005Z,58.90
2022-11-14T14:05:35.780Z,58.70
2022-11-14T14:09:26.712Z,59.00
2022-11-14T14:13:23.500Z,58.90
2022-11-14T14:17:12.305Z,58.80
2022-11-14T14:21:02.001Z,59.00
2022-11-14T14:25:01.487Z,58.70
2022-11-14T14:28:53.274Z,58.70
2022-11-14T14:32:35.592Z,58.70
2022-11-14T14:36:20.490Z,58.60
2022-11-14T14:40:06.130Z,58.60
2022-11-14T14:43:56.044Z,58.70
2022-11-14T14:47:42.226Z,58.80
2022-11-14T14:51:31.783Z,59.00
2022-11-14T14:55:25.944Z,59.00
2022-11-14T14:59:18.882Z,59.10
2022-11-14T15:03:01.345Z,59.30
2022-11-14T15:06:46.742Z,59.90
2022-11-14T15:10:32.327Z,59.50
2022-11-14T15:14:17.504Z,59.60
2022-11-14T15:18:06.853Z,59.90
2022-11-14T15:22:06.269Z,60.00
2022-11-14T15:25:49.892Z,60.40
2022-11-14T15:29:33.325Z,60.50
2022-11-14T15:33:28.367Z,60.80
2022-11-14T15:37:24.567Z,60.90
2022-11-14T15:41:29.819Z,61.20
2022-11-14T15:45:25.087Z,61.50
2022-11-14T15:49:18.223Z,61.70
2022-11-14T15:53:03.344Z,62.10
2022-11-14T15:56:47.080Z,62.00
2022-11-14T16:00:29.438Z,62.10
2022-11-14T16:04:15.353Z,62.50
2022-11-14T16:07:57.802Z,64.10
2022-11-14T16:11:40.201Z,64.30
2022-11-14T16:15:24.108Z,64.60
2022-11-14T16:19:06.755Z,64.60
2022-11-14T16:22:50.317Z,64.60
2022-11-14T16:26:33.045Z,65.00
2022-11-14T16:30:18.682Z,65.30
2022-11-14T16:34:02.275Z,65.30
2022-11-14T16:37:45.237Z,65.50
2022-11-14T16:41:27.469Z,66.50
2022-11-14T16:45:10.179Z,66.70
2022-11-14T16:48:52.721Z,66.60
2022-11-14T16:52:36.205Z,67.00
2022-11-14T16:56:18.516Z,67.20
2022-11-14T17:00:00.741Z,67.50
2022-11-14T17:03:42.909Z,67.60
2022-11-14T17:07:25.168Z,67.60
2022-11-14T17:11:11.524Z,67.70
2022-11-14T17:14:54.535Z,67.70
2022-11-14T17:18:38.832Z,67.40
2022-11-14T17:22:22.189Z,67.20
2022-11-14T17:26:05.356Z,67.00
2022-11-14T17:29:51.586Z,67.00
2022-11-14T17:33:34.173Z,67.10
2022-11-14T17:37:16.723Z,67.50
2022-11-14T17:40:59.268Z,67.50
2022-11-14T17:44:41.648Z,67.90
2022-11-14T17:48:25.172Z,68.60
2022-11-14T17:52:07.634Z,69.00
2022-11-14T17:55:55.881Z,69.10
2022-11-14T17:59:38.749Z,69.00
2022-11-14T18:03:21.211Z,69.40
2022-11-14T18:07:04.860Z,70.20
2022-11-14T18:10:47.138Z,69.40
2022-11-14T18:14:29.682Z,70.40
2022-11-14T18:18:11.847Z,70.00
2022-11-14T18:21:54.207Z,71.10
2022-11-14T18:25:37.774Z,71.30
2022-11-14T18:29:20.263Z,71.20
2022-11-14T18:33:02.740Z,71.30
2022-11-14T18:36:44.857Z,71.50
2022-11-14T18:40:27.160Z,71.50
2022-11-14T18:44:11.117Z,70.70
2022-11-14T18:47:53.229Z,70.40
2022-11-14T18:51:41.902Z,70.50
2022-11-14T18:55:24.287Z,71.30
2022-11-14T18:59:06.697Z,71.30
2022-11-14T19:02:52.151Z,71.50
2022-11-14T19:06:36.733Z,71.20
2022-11-14T19:10:19.744Z,70.90
2022-11-14T19:14:03.371Z,71.20
2022-11-14T19:17:48.655Z,71.10
2022-11-14T19:21:32.393Z,70.90
2022-11-14T19:25:14.680Z,70.80
2022-11-14T19:28:57.296Z,70.90
2022-11-14T19:32:39.475Z,70.30
2022-11-14T19:36:45.273Z,70.00
2022-11-14T19:40:27.926Z,70.50
2022-11-14T19:44:10.326Z,70.90
2022-11-14T19:47:52.838Z,71.30
2022-11-14T19:51:35.696Z,71.20
2022-11-14T19:55:17.872Z,71.40
2022-11-14T19:59:02.673Z,71.50
2022-11-14T20:02:46.833Z,71.70
2022-11-14T20:06:31.954Z,71.80
2022-11-14T20:10:14.593Z,71.70
2022-11-14T20:13:57.634Z,71.80
2022-11-14T20:17:41.371Z,71.30
2022-11-14T20:21:25.547Z,71.30
2022-11-14T20:25:08.759Z,71.10
2022-11-14T20:28:52.818Z,71.20
2022-11-14T20:32:35.536Z,71.10
2022-11-14T20:36:21.532Z,71.00
2022-11-14T20:40:03.852Z,70.30
2022-11-14T20:43:45.979Z,69.00
2022-11-14T20:47:29.878Z,66.50
2022-11-14T20:51:15.175Z,65.50
2022-11-14T20:54:59.216Z,65.00
2022-11-14T20:58:42.085Z,64.40
2022-11-14T21:02:24.352Z,63.90
2022-11-14T21:06:08.139Z,63.30
2022-11-14T21:10:10.460Z,62.50
2022-11-14T21:13:57.236Z,62.40
2022-11-14T21:17:39.131Z,61.80
2022-11-14T21:21:24.462Z,61.00
2022-11-14T21:25:07.225Z,61.50
2022-11-14T21:28:51.592Z,60.20
2022-11-14T21:32:36.204Z,60.30
2022-11-14T21:40:21.780Z,60.50
2022-11-14T21:44:04.815Z,60.80
2022-11-14T21:47:48.667Z,60.90
2022-11-14T21:51:31.018Z,62.30
2022-11-14T21:55:13.610Z,62.50
2022-11-14T21:59:12.553Z,62.70
2022-11-14T22:03:30.382Z,63.10
2022-11-14T22:07:12.863Z,63.20
2022-11-14T22:11:00.783Z,63.50
2022-11-14T22:14:43.454Z,63.70
2022-11-14T22:18:27.391Z,64.00
2022-11-14T22:22:09.634Z,64.10
2022-11-14T22:25:55.755Z,64.30
2022-11-14T22:29:38.217Z,64.50
2022-11-14T22:33:20.572Z,64.60
2022-11-14T22:37:04.071Z,64.60
2022-11-14T22:40:46.252Z,64.80
2022-11-14T22:44:28.640Z,65.00
2022-11-14T22:48:10.713Z,65.30
2022-11-14T22:51:52.655Z,65.40
2022-11-14T22:55:36.215Z,65.00
2022-11-14T22:59:18.787Z,64.80
2022-11-14T23:03:01.043Z,64.60
2022-11-14T23:07:01.872Z,64.30
2022-11-14T23:10:46.467Z,63.90
2022-11-14T23:14:28.645Z,64.10
2022-11-14T23:18:10.885Z,63.90
2022-11-14T23:21:55.375Z,63.80
2022-11-14T23:25:38.614Z,64.00
2022-11-14T23:29:22.835Z,64.00
2022-11-14T23:33:06.319Z,64.70
2022-11-14T23:36:48.869Z,64.10
2022-11-14T23:40:31.373Z,64.30
2022-11-14T23:49:27.487Z,65.10
2022-11-14T23:53:09.679Z,65.60
2022-11-14T23:56:51.844Z,67.50
